Time;durP1;ratioP1;P1;durP2;ratioP2;P2;SDS_P1;SDS_P2;PMS_P1;PMS_P2;Temp;Humidity;BMP_temperature;BMP_pressure;BME280_temperature;BME280_humidity;BME280_pressure;Samples;Min_cycle;Max_cycle;Signal;HPM_P1;HPM_P2
2022/07/16 00:04:30;;;;;;;4.57;1.80;;;;;;;9.30;100.00;97007.59;10406852;28;20232;-71
2022/07/16 00:09:30;;;;;;;3.93;1.70;;;;;;;9.24;100.00;97000.34;10407480;28;20297;-71
2022/07/16 00:14:30;;;;;;;4.00;1.73;;;;;;;9.21;100.00;96995.38;10407099;28;20207;-71
2022/07/16 00:19:31;;;;;;;2.83;1.77;;;;;;;9.16;100.00;96995.81;10406737;28;20216;-71
2022/07/16 00:24:31;;;;;;;1.30;1.20;;;;;;;9.18;100.00;96990.44;10407239;28;20250;-71
2022/07/16 00:29:32;;;;;;;3.67;1.57;;;;;;;9.18;100.00;96983.41;10406747;28;20189;-70
2022/07/16 00:34:33;;;;;;;1.43;1.17;;;;;;;9.16;100.00;96982.75;10406877;28;20177;-70
2022/07/16 00:39:33;;;;;;;4.50;1.60;;;;;;;9.20;100.00;96972.81;10413179;28;20232;-71
2022/07/16 00:44:33;;;;;;;2.60;1.57;;;;;;;9.21;100.00;96979.69;10414294;28;20189;-71
2022/07/16 00:49:34;;;;;;;3.70;1.50;;;;;;;9.23;100.00;96975.16;10413067;28;20540;-71
2022/07/16 00:54:34;;;;;;;3.40;1.47;;;;;;;9.28;100.00;96973.75;10413903;28;20644;-71
2022/07/16 00:59:34;;;;;;;2.27;1.47;;;;;;;9.32;100.00;96976.91;10412966;28;20251;-71
2022/07/16 01:04:35;;;;;;;2.77;1.37;;;;;;;9.36;100.00;96970.44;10412676;28;20270;-71
2022/07/16 01:09:36;;;;;;;4.77;1.40;;;;;;;9.35;100.00;96967.97;10395350;28;20271;-71
2022/07/16 01:14:36;;;;;;;10.43;1.70;;;;;;;9.31;100.00;96961.38;10412602;28;20189;-71
2022/07/16 01:19:36;;;;;;;3.33;1.83;;;;;;;9.21;100.00;96961.41;10394681;28;20696;-70
2022/07/16 01:24:39;;;;;;;3.60;1.70;;;;;;;9.20;100.00;96960.56;10412508;28;20268;-71
2022/07/16 01:29:40;;;;;;;1.77;1.30;;;;;;;9.14;100.00;96953.28;10411753;28;20732;-71
2022/07/16 01:34:40;;;;;;;2.83;1.50;;;;;;;9.13;100.00;96953.44;10411893;28;20197;-71
2022/07/16 01:39:41;;;;;;;2.50;1.40;;;;;;;9.14;100.00;96949.84;10411406;28;20212;-71
2022/07/16 01:44:42;;;;;;;5.83;1.50;;;;;;;9.13;100.00;96950.81;10411595;28;20193;-71
2022/07/16 01:49:42;;;;;;;3.77;1.60;;;;;;;9.11;100.00;96948.34;10410326;28;20193;-71
2022/07/16 01:54:49;;;;;;;6.30;1.60;;;;;;;9.07;100.00;96947.00;10411280;28;20254;-71
2022/07/16 01:59:49;;;;;;;2.13;1.50;;;;;;;9.10;100.00;96951.94;10410958;28;20236;-72
2022/07/16 02:04:50;;;;;;;3.20;1.50;;;;;;;9.07;100.00;96947.81;10410500;28;20232;-71
2022/07/16 02:09:50;;;;;;;2.80;1.50;;;;;;;9.08;100.00;96951.25;10410410;28;20208;-71
2022/07/16 02:14:50;;;;;;;2.93;1.50;;;;;;;9.10;100.00;96938.88;10410455;28;20196;-71
2022/07/16 02:19:52;;;;;;;3.67;1.67;;;;;;;9.15;100.00;96949.72;10409817;28;20229;-71
2022/07/16 02:24:52;;;;;;;2.30;1.50;;;;;;;9.16;100.00;96937.47;10410241;28;20208;-71
2022/07/16 02:29:53;;;;;;;4.43;1.50;;;;;;;9.19;100.00;96932.78;10409170;28;20200;-71
2022/07/16 02:34:53;;;;;;;3.53;1.67;;;;;;;9.22;100.00;96932.50;10409664;28;20199;-71
2022/07/16 02:39:54;;;;;;;2.93;1.63;;;;;;;9.27;100.00;96929.47;10408962;28;20282;-71
2022/07/16 02:44:54;;;;;;;2.47;1.30;;;;;;;9.24;100.00;96930.56;10409299;28;20279;-71
2022/07/16 02:49:54;;;;;;;2.80;1.47;;;;;;;9.29;100.00;96930.13;10409146;28;20215;-71
2022/07/16 02:54:55;;;;;;;5.83;1.53;;;;;;;9.33;100.00;96926.28;10408622;28;20196;-71
2022/07/16 02:59:55;;;;;;;3.10;1.33;;;;;;;9.34;100.00;96914.03;10390351;28;20303;-71
2022/07/16 03:04:55;;;;;;;1.83;1.20;;;;;;;9.26;100.00;96909.50;10404541;28;20721;-70
2022/07/16 03:09:56;;;;;;;4.93;1.33;;;;;;;9.28;100.00;96904.97;10383621;28;20212;-70
2022/07/16 03:14:57;;;;;;;3.10;1.40;;;;;;;9.24;100.00;96903.63;10384036;28;20266;-71
2022/07/16 03:19:58;;;;;;;1.83;1.33;;;;;;;9.23;100.00;96905.41;10400967;28;20228;-70
2022/07/16 03:24:58;;;;;;;5.97;1.37;;;;;;;9.24;100.00;96903.63;10401397;28;20191;-70
2022/07/16 03:29:58;;;;;;;2.80;1.20;;;;;;;9.33;100.00;96907.16;10400703;28;20181;-71
2022/07/16 03:34:59;;;;;;;2.77;1.10;;;;;;;9.30;100.00;96902.22;10400314;28;20195;-70
2022/07/16 03:39:59;;;;;;;1.87;1.17;;;;;;;9.25;100.00;96913.09;10400789;28;20738;-70
2022/07/16 03:44:59;;;;;;;7.43;1.50;;;;;;;9.17;100.00;96908.56;10382801;28;20652;-71
2022/07/16 03:50:00;;;;;;;5.67;1.40;;;;;;;9.20;100.00;96902.25;10400274;28;20196;-70
2022/07/16 03:55:00;;;;;;;2.10;1.23;;;;;;;9.20;100.00;96912.69;10400712;28;20200;-71
2022/07/16 04:00:00;;;;;;;3.93;1.50;;;;;;;9.11;100.00;96916.97;10399849;28;20338;-71
2022/07/16 04:05:01;;;;;;;2.43;1.27;;;;;;;9.09;100.00;96909.28;10373519;28;20232;-71
2022/07/16 04:10:02;;;;;;;3.93;1.33;;;;;;;9.10;100.00;96910.13;10406538;28;20209;-70
2022/07/16 04:15:03;;;;;;;2.23;1.23;;;;;;;9.15;100.00;96900.06;10415480;28;20279;-70
2022/07/16 04:20:04;;;;;;;6.90;1.43;;;;;;;9.24;100.00;96904.41;10414779;28;20224;-70
2022/07/16 04:25:05;;;;;;;1.43;0.90;;;;;;;9.55;100.00;96900.72;10396853;28;20220;-71
2022/07/16 04:30:07;;;;;;;3.80;1.20;;;;;;;9.81;100.00;96885.16;10414712;28;20280;-71
2022/07/16 04:35:09;;;;;;;0.97;0.80;;;;;;;10.17;100.00;96882.56;10395784;28;20200;-71
2022/07/16 04:40:10;;;;;;;7.70;1.30;;;;;;;10.46;100.00;96884.97;10396723;28;20228;-70
2022/07/16 04:45:12;;;;;;;3.37;1.07;;;;;;;10.74;100.00;96873.56;10413835;28;20282;-71
2022/07/16 04:50:12;;;;;;;2.97;1.30;;;;;;;10.78;100.00;96877.50;10413789;28;20189;-71
2022/07/16 04:55:12;;;;;;;2.90;1.30;;;;;;;10.83;100.00;96876.06;10413723;28;20204;-70
2022/07/16 05:00:13;;;;;;;3.03;1.50;;;;;;;11.04;100.00;96872.25;10412704;28;20303;-70
2022/07/16 05:05:13;;;;;;;2.43;1.20;;;;;;;11.44;98.07;96862.97;10413519;28;20235;-71
2022/07/16 05:10:14;;;;;;;3.10;1.20;;;;;;;11.70;95.93;96849.75;10412238;28;20667;-71
2022/07/16 05:15:15;;;;;;;3.58;1.50;;;;;;;12.31;90.23;96823.25;10395579;28;20251;-71
2022/07/16 05:20:15;;;;;;;1.15;1.05;;;;;;;12.82;84.96;96784.44;10412346;28;20515;-71
2022/07/16 05:25:15;;;;;;;2.67;1.40;;;;;;;13.55;81.75;96756.19;10378182;28;20220;-71
2022/07/16 05:30:16;;;;;;;4.47;1.30;;;;;;;13.96;78.81;96751.63;10412396;28;20193;-71
2022/07/16 05:35:17;;;;;;;1.38;1.05;;;;;;;14.01;75.30;96726.41;10394062;28;20203;-71
2022/07/16 05:40:17;;;;;;;4.18;1.40;;;;;;;14.04;74.67;96718.16;10411613;28;20274;-71
2022/07/16 05:45:17;;;;;;;6.78;1.65;;;;;;;14.15;73.92;96719.53;10411795;28;20278;-71
2022/07/16 05:50:18;;;;;;;4.32;1.20;;;;;;;14.36;72.02;96696.94;10410928;28;20185;-70
2022/07/16 05:55:18;;;;;;;11.00;1.52;;;;;;;14.44;72.11;96710.84;10411428;28;20207;-71
2022/07/16 06:00:19;;;;;;;3.90;1.15;;;;;;;14.86;71.24;96705.94;10410702;28;20224;-71
2022/07/16 06:05:19;;;;;;;4.97;1.23;;;;;;;14.97;68.93;96679.09;10410598;28;20319;-71
2022/07/16 06:10:19;;;;;;;1.50;0.95;;;;;;;15.49;68.22;96676.41;10392947;28;20275;-71
2022/07/16 06:15:20;;;;;;;4.35;1.20;;;;;;;15.81;66.50;96647.88;10410215;28;20207;-70
2022/07/16 06:20:20;;;;;;;4.00;1.00;;;;;;;16.35;66.04;96652.50;10392361;28;20251;-71
2022/07/16 06:25:21;;;;;;;4.38;1.13;;;;;;;16.72;63.54;96625.84;10410365;28;20193;-71
2022/07/16 06:30:21;;;;;;;4.30;1.20;;;;;;;16.25;62.69;96606.28;10409518;28;20291;-71
2022/07/16 06:35:21;;;;;;;1.38;0.80;;;;;;;16.86;62.93;96629.34;10409006;28;20254;-71
2022/07/16 06:40:22;;;;;;;10.10;1.58;;;;;;;16.34;64.11;96661.47;10409467;28;20225;-71
2022/07/16 06:45:22;;;;;;;2.58;1.00;;;;;;;17.22;60.38;96615.03;10409757;28;20210;-71
2022/07/16 06:50:24;;;;;;;4.53;1.20;;;;;;;16.60;61.79;96628.25;10408946;28;20196;-71
2022/07/16 06:55:24;;;;;;;6.03;1.10;;;;;;;17.17;62.11;96651.88;10409223;28;20242;-71
2022/07/16 07:00:25;;;;;;;7.72;1.15;;;;;;;18.25;59.09;96613.81;10408701;28;20225;-71
2022/07/16 07:05:25;;;;;;;3.38;0.88;;;;;;;17.90;58.43;96593.69;10390931;28;20232;-72
2022/07/16 07:10:25;;;;;;;5.80;1.33;;;;;;;17.65;61.56;96681.69;10408363;28;20184;-71
2022/07/16 07:15:26;;;;;;;3.38;1.35;;;;;;;16.77;62.41;96674.50;10408199;28;20652;-71
2022/07/16 07:20:27;;;;;;;7.15;1.55;;;;;;;18.66;61.31;96698.38;10408061;28;20579;-71
2022/07/16 07:25:27;;;;;;;2.67;1.33;;;;;;;18.03;60.37;96676.88;10408771;28;20260;-72
2022/07/16 07:30:28;;;;;;;2.45;1.50;;;;;;;16.80;64.84;96738.59;10407785;28;20193;-72
2022/07/16 07:35:28;;;;;;;2.00;1.10;;;;;;;16.55;67.04;96781.38;10407676;28;20259;-71
2022/07/16 07:40:29;;;;;;;6.25;1.60;;;;;;;16.57;66.93;96763.53;10407394;28;20223;-71
2022/07/16 07:45:29;;;;;;;2.92;1.20;;;;;;;16.72;65.92;96739.56;10410386;28;20188;-72
2022/07/16 07:50:30;;;;;;;5.60;1.25;;;;;;;17.00;63.97;96702.53;10415925;28;20224;-72
2022/07/16 07:55:30;;;;;;;5.65;1.40;;;;;;;17.31;62.62;96679.22;10416306;28;20283;-71
2022/07/16 08:00:31;;;;;;;2.75;1.00;;;;;;;17.92;62.92;96704.81;10415692;28;20278;-71
2022/07/16 08:05:32;;;;;;;2.38;1.08;;;;;;;18.75;57.43;96600.78;10415047;28;20327;-72
2022/07/16 08:10:32;;;;;;;2.78;1.00;;;;;;;18.57;58.20;96632.50;10415307;28;20208;-71
2022/07/16 08:15:33;;;;;;;5.68;1.20;;;;;;;18.30;59.18;96648.47;10414743;28;20211;-71
2022/07/16 08:20:33;;;;;;;6.88;1.60;;;;;;;17.81;59.40;96648.69;10414717;28;20331;-71
2022/07/16 08:25:45;;;;;;;5.88;1.40;;;;;;;17.46;60.02;96653.38;10414997;28;20197;-71
2022/07/16 08:30:45;;;;;;;3.25;1.45;;;;;;;16.68;62.07;96673.03;10413958;28;20205;-71
2022/07/16 08:35:46;;;;;;;2.20;1.05;;;;;;;16.69;63.32;96709.06;10414488;28;20193;-71
2022/07/16 08:40:49;;;;;;;3.30;1.30;;;;;;;17.05;63.25;96712.50;10396259;28;20459;-71
2022/07/16 08:45:50;;;;;;;2.40;1.20;;;;;;;17.51;62.58;96716.31;10414066;28;20228;-72
2022/07/16 08:50:52;;;;;;;2.38;1.50;;;;;;;17.22;64.31;96750.03;10413613;28;20291;-72
2022/07/16 08:55:53;;;;;;;4.70;1.48;;;;;;;17.56;70.21;96867.53;10413088;28;20220;-72
2022/07/16 09:00:54;;;;;;;5.88;2.00;;;;;;;17.65;68.30;96823.94;10413098;28;20189;-71
2022/07/16 09:05:54;;;;;;;4.45;1.65;;;;;;;17.66;69.62;96852.09;10413146;28;20716;-72
2022/07/16 09:10:54;;;;;;;4.35;1.63;;;;;;;17.55;68.79;96828.78;10412813;28;20723;-72
2022/07/16 09:15:55;;;;;;;4.60;1.70;;;;;;;17.19;70.81;96870.38;10395115;28;20232;-71
2022/07/16 09:21:00;;;;;;;4.88;1.90;;;;;;;17.15;69.35;96845.34;10412488;28;20201;-71
2022/07/16 09:26:09;;;;;;;4.80;1.98;;;;;;;16.47;73.43;96914.56;10412744;28;20190;-71
2022/07/16 09:31:31;;;;;;;5.85;2.03;;;;;;;16.29;73.32;96900.97;10411931;28;20275;-71
2022/07/16 09:36:31;;;;;;;3.75;1.92;;;;;;;16.05;85.29;96990.19;10411626;28;20228;-72
2022/07/16 09:41:45;;;;;;;3.95;2.17;;;;;;;14.42;100.00;96959.78;10411443;28;20199;-72
2022/07/16 09:47:00;;;;;;;7.50;3.10;;;;;;;13.63;100.00;96957.19;10413054;28;20629;-72
2022/07/16 09:52:01;;;;;;;8.50;3.58;;;;;;;13.69;100.00;96951.25;10403009;28;20223;-71
2022/07/16 09:57:28;;;;;;;5.25;3.15;;;;;;;14.35;100.00;96949.13;10398246;28;20728;-72
2022/07/16 10:02:30;;;;;;;3.90;2.40;;;;;;;15.02;100.00;96944.19;10408116;28;20240;-73
2022/07/16 10:07:31;;;;;;;3.92;3.05;;;;;;;14.84;100.00;96936.59;10410348;28;20610;-72
2022/07/16 10:12:32;;;;;;;10.50;2.47;;;;;;;14.65;100.00;96938.72;10410109;28;20192;-72
2022/07/16 10:17:35;;;;;;;4.50;2.65;;;;;;;14.61;100.00;96961.19;10392318;28;20229;-72
2022/07/16 10:22:43;;;;;;;6.75;2.67;;;;;;;14.50;100.00;96962.38;10410510;28;20243;-73
2022/07/16 10:27:44;;;;;;;6.95;2.78;;;;;;;14.35;100.00;96969.38;10409686;28;20185;-73
2022/07/16 10:33:02;;;;;;;5.35;3.17;;;;;;;14.14;100.00;96962.91;10410210;28;20192;-73
2022/07/16 10:38:11;;;;;;;6.18;3.22;;;;;;;14.63;100.00;96978.44;10409070;28;20224;-73
2022/07/16 10:43:13;;;;;;;5.93;3.50;;;;;;;14.85;100.00;96991.00;10392046;28;20232;-73
2022/07/16 10:48:13;;;;;;;4.82;3.35;;;;;;;15.22;100.00;96992.84;10391318;28;20195;-73
2022/07/16 10:53:13;;;;;;;5.47;3.40;;;;;;;15.16;100.00;96990.91;10391932;28;20192;-73
2022/07/16 10:58:14;;;;;;;6.50;3.80;;;;;;;14.90;100.00;97002.66;10408359;28;20224;-73
2022/07/16 11:03:14;;;;;;;10.95;3.88;;;;;;;14.45;100.00;97006.88;10409017;28;20260;-73
2022/07/16 11:08:15;;;;;;;7.40;4.20;;;;;;;13.81;100.00;97005.16;10408245;28;20567;-73
2022/07/16 11:13:17;;;;;;;7.65;4.22;;;;;;;13.29;100.00;97011.69;10390651;28;20640;-73
2022/07/16 11:18:17;;;;;;;7.13;4.68;;;;;;;13.61;100.00;97011.81;10384345;28;20217;-73
2022/07/16 11:23:19;;;;;;;9.15;4.38;;;;;;;14.09;100.00;97026.66;10366980;28;20193;-72
2022/07/16 11:28:19;;;;;;;6.38;3.78;;;;;;;14.26;100.00;97021.31;10367152;28;20184;-72
2022/07/16 11:33:37;;;;;;;5.20;3.83;;;;;;;14.06;100.00;97018.28;10367213;28;20193;-73
2022/07/16 11:38:38;;;;;;;6.55;3.20;;;;;;;14.98;100.00;97015.78;10366803;28;20224;-72
2022/07/16 11:43:38;;;;;;;6.75;3.85;;;;;;;15.83;100.00;97013.03;10365997;28;20200;-73
2022/07/16 11:48:40;;;;;;;8.25;2.72;;;;;;;16.86;100.00;97003.28;10366779;28;20555;-72
2022/07/16 11:53:40;;;;;;;6.47;3.15;;;;;;;17.85;97.43;96976.91;10367063;28;20197;-72
2022/07/16 11:58:40;;;;;;;4.95;2.95;;;;;;;17.87;92.89;96986.31;10365020;28;20225;-72
2022/07/16 12:03:52;;;;;;;4.90;3.08;;;;;;;17.42;90.29;96960.16;10367044;28;20233;-72
2022/07/16 12:08:54;;;;;;;7.75;2.70;;;;;;;16.76;94.19;96977.09;10365911;28;20221;-72
2022/07/16 12:13:55;;;;;;;4.35;2.20;;;;;;;16.09;99.16;96996.72;10366655;28;20564;-72
2022/07/16 12:19:13;;;;;;;3.13;1.95;;;;;;;16.47;95.99;96979.88;10366268;28;20227;-72
2022/07/16 12:24:14;;;;;;;6.97;2.40;;;;;;;16.88;94.67;96977.47;10366331;28;20189;-73
2022/07/16 12:29:15;;;;;;;3.30;2.15;;;;;;;16.64;95.77;96983.91;10365793;28;20193;-72
2022/07/16 12:34:16;;;;;;;2.58;2.17;;;;;;;16.73;91.90;96963.44;10370707;28;20648;-72
2022/07/16 12:39:21;;;;;;;3.15;1.90;;;;;;;18.43;84.60;96915.56;10372969;28;20587;-73
2022/07/16 12:44:21;;;;;;;3.33;2.08;;;;;;;19.13;76.88;96862.09;10372968;28;20193;-72
2022/07/16 12:49:26;;;;;;;2.35;1.70;;;;;;;19.42;74.30;96861.63;10373033;28;20205;-72
2022/07/16 12:54:26;;;;;;;3.05;1.30;;;;;;;20.70;68.81;96819.19;10371451;28;20616;-72
2022/07/16 12:59:27;;;;;;;2.13;1.50;;;;;;;20.43;61.18;96706.81;10372484;28;20320;-72
2022/07/16 13:04:28;;;;;;;3.35;1.10;;;;;;;21.76;56.10;96645.78;10372367;28;20769;-72
2022/07/16 13:09:28;;;;;;;3.83;1.30;;;;;;;22.70;53.71;96634.28;10371575;28;20205;-73
2022/07/16 13:14:28;;;;;;;5.45;1.55;;;;;;;23.07;54.04;96668.69;10371331;28;20204;-73
2022/07/16 13:19:29;;;;;;;1.63;1.35;;;;;;;21.82;53.80;96634.22;10371203;28;20232;-73
2022/07/16 13:24:29;;;;;;;3.50;1.50;;;;;;;21.76;53.67;96636.97;10384440;28;20201;-72
2022/07/16 13:29:30;;;;;;;1.25;0.95;;;;;;;22.82;51.54;96644.13;10371110;28;20185;-72
2022/07/16 13:34:30;;;;;;;1.50;1.08;;;;;;;23.84;47.53;96567.63;10370536;28;20654;-71
2022/07/16 13:39:30;;;;;;;1.83;1.02;;;;;;;23.49;49.44;96632.84;10370667;28;20324;-72
2022/07/16 13:44:31;;;;;;;2.08;0.90;;;;;;;24.50;43.73;96500.81;10370330;28;20189;-72
2022/07/16 13:49:31;;;;;;;3.28;1.10;;;;;;;25.41;40.74;96471.66;10370068;28;20201;-72
2022/07/16 13:54:31;;;;;;;2.03;1.20;;;;;;;22.62;44.95;96506.50;10370327;28;20196;-72
2022/07/16 13:59:32;;;;;;;1.42;0.98;;;;;;;22.95;44.21;96496.94;10369868;28;20221;-72
2022/07/16 14:04:32;;;;;;;0.82;0.77;;;;;;;20.88;47.22;96538.81;10369696;28;20240;-72
2022/07/16 14:09:32;;;;;;;1.25;0.93;;;;;;;21.03;46.34;96520.56;10369783;28;20209;-71
2022/07/16 14:14:33;;;;;;;1.95;1.00;;;;;;;20.97;47.99;96587.25;10369191;28;20520;-72
2022/07/16 14:19:33;;;;;;;2.28;1.20;;;;;;;20.21;56.27;96784.34;10369275;28;20216;-71
2022/07/16 14:24:34;;;;;;;2.65;1.38;;;;;;;19.68;58.65;96817.38;10369078;28;20189;-72
2022/07/16 14:29:35;;;;;;;1.30;1.10;;;;;;;24.16;48.58;96682.13;10368835;28;20251;-72
2022/07/16 14:34:35;;;;;;;1.10;1.00;;;;;;;26.59;42.36;96598.53;10368089;28;20280;-72
2022/07/16 14:39:36;;;;;;;2.88;1.00;;;;;;;25.92;42.41;96571.28;10368250;28;20570;-72
2022/07/16 14:44:36;;;;;;;2.13;1.00;;;;;;;27.09;40.42;96579.34;10368243;28;20580;-72
2022/07/16 14:49:36;;;;;;;0.90;0.67;;;;;;;25.24;41.83;96553.03;10367497;28;20863;-72
2022/07/16 14:54:37;;;;;;;2.73;1.23;;;;;;;24.02;44.38;96596.00;10367896;28;20882;-72
2022/07/16 14:59:37;;;;;;;4.07;1.20;;;;;;;21.93;48.17;96637.94;10367487;28;20831;-72
2022/07/16 15:04:39;;;;;;;2.88;1.10;;;;;;;20.70;51.72;96717.22;10367498;28;20597;-72
2022/07/16 15:09:39;;;;;;;1.83;1.20;;;;;;;20.27;53.16;96746.22;10367580;28;20209;-72
2022/07/16 15:14:40;;;;;;;4.38;1.05;;;;;;;23.11;49.11;96735.88;10366978;28;20563;-71
2022/07/16 15:19:40;;;;;;;3.50;1.08;;;;;;;24.78;44.34;96653.56;10367078;28;20229;-72
2022/07/16 15:24:40;;;;;;;1.90;1.10;;;;;;;24.95;44.37;96666.88;10367068;28;20201;-72
2022/07/16 15:29:41;;;;;;;1.00;0.90;;;;;;;26.77;41.07;96632.25;10366812;28;20268;-72
2022/07/16 15:34:41;;;;;;;1.10;0.80;;;;;;;27.19;38.40;96568.63;10349163;28;20451;-72
2022/07/16 15:39:41;;;;;;;2.17;1.00;;;;;;;25.64;39.34;96522.25;10348725;28;20858;-72
2022/07/16 15:44:42;;;;;;;1.63;1.00;;;;;;;26.44;39.59;96579.66;10366573;28;20502;-72
2022/07/16 15:49:42;;;;;;;2.05;0.85;;;;;;;25.62;38.35;96510.97;10348705;28;20255;-72
2022/07/16 15:54:43;;;;;;;3.53;0.90;;;;;;;23.41;41.69;96539.69;10366567;28;20189;-72
2022/07/16 15:59:43;;;;;;;1.88;1.00;;;;;;;21.98;45.42;96622.03;10365768;28;20307;-72
2022/07/16 16:04:44;;;;;;;3.08;1.20;;;;;;;23.12;44.77;96646.63;10365654;28;20233;-71
2022/07/16 16:09:44;;;;;;;5.47;1.08;;;;;;;23.41;42.74;96598.50;10381153;28;20579;-72
2022/07/16 16:14:44;;;;;;;3.42;0.80;;;;;;;23.54;42.35;96595.53;10414725;28;20209;-72
2022/07/16 16:19:45;;;;;;;5.32;0.90;;;;;;;22.87;42.32;96594.28;10414703;28;20212;-71
2022/07/16 16:24:45;;;;;;;4.38;1.25;;;;;;;22.29;43.92;96614.72;10414278;28;20188;-71
2022/07/16 16:29:45;;;;;;;2.08;0.80;;;;;;;21.86;44.75;96626.53;10414005;28;20189;-71
2022/07/16 16:34:46;;;;;;;3.17;1.42;;;;;;;21.24;46.46;96656.13;10413903;28;20181;-72
2022/07/16 16:39:46;;;;;;;5.07;1.15;;;;;;;21.95;44.29;96633.16;10413381;28;20223;-71
2022/07/16 16:44:46;;;;;;;3.80;1.08;;;;;;;21.95;42.27;96579.81;10413281;28;20208;-72
2022/07/16 16:49:47;;;;;;;1.05;0.60;;;;;;;21.44;41.01;96511.94;10413201;28;20191;-72
2022/07/16 16:54:48;;;;;;;4.10;2.60;;;;;;;21.11;40.75;96502.66;10412976;28;20262;-72
2022/07/16 16:59:48;;;;;;;2.97;1.00;;;;;;;21.00;42.38;96574.28;10412296;28;20299;-72
2022/07/16 17:04:49;;;;;;;2.92;1.48;;;;;;;20.97;42.76;96577.41;10412921;28;20367;-72
2022/07/16 17:09:49;;;;;;;1.73;1.02;;;;;;;20.66;43.29;96611.19;10411919;28;20200;-72
2022/07/16 17:14:49;;;;;;;3.45;0.93;;;;;;;20.17;43.77;96607.59;10412676;28;20731;-72
2022/07/16 17:19:50;;;;;;;2.15;1.10;;;;;;;19.75;45.41;96641.88;10411415;28;20616;-72
2022/07/16 17:24:51;;;;;;;3.55;1.58;;;;;;;19.86;45.50;96667.81;10412157;28;20188;-72
2022/07/16 17:29:51;;;;;;;2.40;0.95;;;;;;;19.54;46.27;96689.06;10411899;28;20230;-72
2022/07/16 17:34:51;;;;;;;5.25;2.63;;;;;;;19.44;46.75;96707.31;10411355;28;20191;-72
2022/07/16 17:39:52;;;;;;;3.22;1.02;;;;;;;19.20;47.21;96722.97;10411926;28;20252;-72
2022/07/16 17:44:52;;;;;;;6.10;0.95;;;;;;;18.97;47.39;96727.94;10410102;28;20419;-71
2022/07/16 17:49:52;;;;;;;2.90;1.10;;;;;;;18.66;47.35;96703.69;10411458;28;20288;-72
2022/07/16 17:54:55;;;;;;;5.82;2.38;;;;;;;18.67;47.08;96709.84;10410925;28;20184;-72
2022/07/16 17:59:55;;;;;;;3.42;1.58;;;;;;;18.30;45.88;96669.69;10410206;28;20227;-72
2022/07/16 18:04:55;;;;;;;6.40;2.67;;;;;;;18.15;45.35;96654.81;10410883;28;20228;-72
2022/07/16 18:09:57;;;;;;;3.63;1.88;;;;;;;17.74;45.81;96657.66;10409440;28;20200;-72
2022/07/16 18:14:57;;;;;;;4.35;2.67;;;;;;;17.65;46.41;96670.28;10410693;28;20617;-72
2022/07/16 18:19:57;;;;;;;6.32;1.50;;;;;;;17.49;45.77;96655.63;10409656;28;20307;-71
2022/07/16 18:24:58;;;;;;;2.58;1.23;;;;;;;17.32;48.01;96723.19;10409669;28;20199;-72
2022/07/16 18:29:58;;;;;;;2.08;0.93;;;;;;;17.21;46.68;96692.81;10408588;28;20197;-71
2022/07/16 18:34:58;;;;;;;1.95;1.00;;;;;;;16.90;48.39;96739.09;10408978;28;20235;-72
2022/07/16 18:39:59;;;;;;;3.90;1.10;;;;;;;16.82;48.24;96741.91;10408797;28;20235;-71
2022/07/16 18:44:59;;;;;;;3.28;1.00;;;;;;;16.59;49.28;96772.06;10409945;28;20193;-72
2022/07/16 18:50:00;;;;;;;5.10;1.83;;;;;;;16.35;49.77;96792.63;10408547;28;20207;-72
2022/07/16 18:55:01;;;;;;;7.65;2.00;;;;;;;16.16;50.79;96831.09;10408724;28;20188;-72
2022/07/16 19:00:04;;;;;;;7.07;2.40;;;;;;;16.05;51.85;96858.84;10407218;28;20688;-72
2022/07/16 19:05:06;;;;;;;4.22;1.55;;;;;;;15.75;53.00;96902.16;10406149;28;20216;-72
2022/07/16 19:10:07;;;;;;;5.10;1.42;;;;;;;15.64;53.04;96906.09;10405354;28;20752;-72
2022/07/16 19:15:08;;;;;;;3.60;1.10;;;;;;;15.28;54.66;96946.41;10405676;28;20256;-72
2022/07/16 19:20:09;;;;;;;5.00;1.25;;;;;;;15.00;56.56;96986.59;10406182;28;20686;-72
2022/07/16 19:25:10;;;;;;;2.47;0.98;;;;;;;14.63;57.94;97025.09;10407060;28;20215;-72
2022/07/16 19:30:11;;;;;;;4.63;1.55;;;;;;;14.10;60.34;97082.78;10406279;28;20199;-72
2022/07/16 19:35:12;;;;;;;1.95;0.90;;;;;;;13.88;61.25;97111.50;10406291;28;20204;-72
2022/07/16 19:40:13;;;;;;;2.38;0.80;;;;;;;13.69;62.60;97141.66;10406698;28;20220;-72
2022/07/16 19:45:13;;;;;;;3.38;1.10;;;;;;;13.35;64.58;97186.53;10415565;28;20622;-72
2022/07/16 19:50:14;;;;;;;7.60;1.50;;;;;;;12.92;66.57;97217.28;10414694;28;20189;-72
2022/07/16 20:00:34;;;;;;;4.60;1.45;;;;;;;12.47;67.04;97214.78;10414052;28;20223;-71
2022/07/16 20:05:34;;;;;;;5.13;1.13;;;;;;;12.36;66.68;97220.31;10414723;28;20274;-70
2022/07/16 20:10:35;;;;;;;4.68;1.10;;;;;;;11.75;69.31;97264.78;10412754;28;20196;-71
2022/07/16 20:15:35;;;;;;;3.63;0.93;;;;;;;11.30;73.15;97307.63;10414363;28;20188;-71
2022/07/16 20:20:35;;;;;;;4.25;1.20;;;;;;;11.20;74.17;97312.91;10413243;28;20228;-71
2022/07/16 20:25:36;;;;;;;3.50;1.92;;;;;;;11.01;75.29;97315.63;10413361;28;20272;-71
2022/07/16 20:30:36;;;;;;;3.87;1.50;;;;;;;10.93;76.16;97316.34;10413465;28;20632;-71
2022/07/16 20:35:37;;;;;;;6.28;1.90;;;;;;;10.85;77.96;97313.63;10412016;28;20200;-71
2022/07/16 20:40:37;;;;;;;3.55;1.50;;;;;;;10.74;79.12;97326.91;10412542;28;20303;-70
2022/07/16 20:45:38;;;;;;;2.87;1.43;;;;;;;10.61;80.44;97342.91;10412931;28;20334;-70
2022/07/16 20:50:38;;;;;;;6.13;1.63;;;;;;;10.58;81.36;97338.81;10411701;28;20208;-72
2022/07/16 20:55:39;;;;;;;5.20;1.73;;;;;;;10.45;82.04;97343.50;10411958;28;20266;-72
2022/07/16 21:00:39;;;;;;;7.50;1.43;;;;;;;10.38;82.56;97351.06;10412133;28;20219;-71
2022/07/16 21:05:40;;;;;;;3.67;1.00;;;;;;;10.34;81.96;97350.53;10411463;28;20236;-71
2022/07/16 21:10:40;;;;;;;4.73;1.33;;;;;;;10.28;83.08;97350.25;10411829;28;20201;-71
2022/07/16 21:15:40;;;;;;;2.20;1.20;;;;;;;10.21;83.45;97357.81;10411634;28;20204;-71
2022/07/16 21:20:42;;;;;;;4.83;1.40;;;;;;;10.01;83.91;97372.69;10411886;28;20312;-71
2022/07/16 21:25:43;;;;;;;3.13;1.00;;;;;;;9.97;85.10;97379.19;10412347;28;20188;-71
2022/07/16 21:30:44;;;;;;;5.00;1.67;;;;;;;9.90;85.20;97389.34;10378468;28;20224;-71
2022/07/16 21:35:44;;;;;;;5.47;1.30;;;;;;;9.75;86.50;97401.16;10394167;28;20692;-71
2022/07/16 21:40:44;;;;;;;3.30;1.20;;;;;;;9.68;87.29;97413.09;10411854;28;20224;-71
2022/07/16 21:45:45;;;;;;;2.73;1.27;;;;;;;9.58;88.20;97413.09;10411867;28;20192;-71
2022/07/16 21:50:45;;;;;;;2.63;1.30;;;;;;;9.50;88.87;97415.56;10411176;28;20303;-71
2022/07/16 21:55:46;;;;;;;6.40;1.30;;;;;;;9.40;89.51;97423.34;10393879;28;20192;-71
2022/07/16 22:00:46;;;;;;;4.60;1.10;;;;;;;9.40;89.32;97429.41;10410612;28;20219;-71
2022/07/16 22:05:47;;;;;;;4.80;1.50;;;;;;;9.24;90.09;97435.13;10392630;28;20607;-71
2022/07/16 22:10:47;;;;;;;7.00;1.10;;;;;;;9.15;90.88;97443.72;10410436;28;20592;-71
2022/07/16 22:15:48;;;;;;;4.97;1.33;;;;;;;9.09;92.21;97450.28;10410575;28;20533;-71
2022/07/16 22:20:54;;;;;;;8.80;1.47;;;;;;;9.08;92.28;97455.66;10409747;28;20247;-71
2022/07/16 22:25:55;;;;;;;2.53;1.07;;;;;;;8.98;93.33;97463.44;10410159;28;20272;-71
2022/07/16 22:30:55;;;;;;;4.27;1.20;;;;;;;8.79;94.96;97474.59;10409699;28;20862;-71
2022/07/16 22:35:56;;;;;;;1.37;1.03;;;;;;;8.76;95.56;97485.31;10409639;28;20273;-71
2022/07/16 22:40:56;;;;;;;4.97;1.10;;;;;;;8.71;96.37;97482.22;10409275;28;20232;-71
2022/07/16 22:45:57;;;;;;;2.43;0.87;;;;;;;8.57;98.11;97488.56;10409161;28;20196;-71
2022/07/16 22:50:57;;;;;;;3.50;1.13;;;;;;;8.48;98.75;97491.94;10409290;28;20185;-71
2022/07/16 22:55:57;;;;;;;6.13;1.40;;;;;;;8.35;99.74;97497.28;10409488;28;20257;-71
2022/07/16 23:00:58;;;;;;;4.13;1.40;;;;;;;8.34;100.00;97500.84;10409163;28;20333;-71
2022/07/16 23:05:58;;;;;;;2.57;1.10;;;;;;;8.30;100.00;97505.50;10408955;28;20228;-71
2022/07/16 23:10:59;;;;;;;6.10;1.30;;;;;;;8.25;100.00;97512.03;10408838;28;20594;-71
2022/07/16 23:15:59;;;;;;;3.13;1.10;;;;;;;8.15;100.00;97510.16;10408376;28;20235;-71
2022/07/16 23:21:00;;;;;;;3.50;1.30;;;;;;;8.16;100.00;97506.59;10389938;28;20240;-71
2022/07/16 23:26:01;;;;;;;3.93;1.37;;;;;;;8.08;100.00;97500.31;10409064;28;20191;-71